Terminal Aerodrome Forecast
Issued by NWS

Home | Current Version | Previous Version | Text Only | Print | Product List | Glossary On
Versions: 1 2 3 4 5 6 7 8 9 10 11 12 13 14 15 16
000
FTUS43 KPAH 270520
TAFCGI
TAF
KCGI 270520Z 2706/2806 25005KT P6SM BKN035
     FM270800 32007KT P6SM SCT008 BKN012
     FM271500 34010KT P6SM BKN015
     FM271700 35010KT P6SM BKN035
     FM280000 VRB02KT P6SM SKC=

USA.gov is the U.S. government's official web portal to all federal, state and local government web resources and services.